createdAt,value
2023-01-20T00:01:12.016Z,21.80
2023-01-20T00:03:40.231Z,23.48
2023-01-20T00:06:08.780Z,21.05
2023-01-20T00:08:36.961Z,24.00
2023-01-20T00:11:07.947Z,23.60
2023-01-20T00:13:36.537Z,27.48
2023-01-20T00:16:04.919Z,27.88
2023-01-20T00:18:33.414Z,24.33
2023-01-20T00:21:04.212Z,23.42
2023-01-20T00:23:32.728Z,24.98
2023-01-20T00:26:04.447Z,26.40
2023-01-20T00:28:34.356Z,27.17
2023-01-20T00:31:11.967Z,23.75
2023-01-20T00:33:40.038Z,25.13
2023-01-20T00:36:09.099Z,31.38
2023-01-20T00:38:37.147Z,27.25
2023-01-20T00:41:05.945Z,23.33
2023-01-20T00:43:35.675Z,29.55
2023-01-20T00:46:03.810Z,33.22
2023-01-20T00:48:31.990Z,29.35
2023-01-20T00:51:00.043Z,27.60
2023-01-20T00:53:28.063Z,30.70
2023-01-20T00:55:55.918Z,28.27
2023-01-20T00:58:23.863Z,27.08
2023-01-20T01:00:55.220Z,24.77
2023-01-20T01:03:23.406Z,31.67
2023-01-20T01:05:51.822Z,26.10
2023-01-20T01:08:19.707Z,29.90
2023-01-20T01:10:47.581Z,28.00
2023-01-20T01:13:15.444Z,26.95
2023-01-20T01:15:49.409Z,31.92
2023-01-20T01:18:18.862Z,27.13
2023-01-20T01:20:46.716Z,25.75
2023-01-20T01:23:14.604Z,24.33
2023-01-20T01:25:42.495Z,21.15
2023-01-20T01:28:10.451Z,25.40
2023-01-20T01:30:38.342Z,26.17
2023-01-20T01:33:06.291Z,23.55
2023-01-20T01:35:35.482Z,29.30
2023-01-20T01:38:03.393Z,26.35
2023-01-20T01:40:31.273Z,25.27
2023-01-20T01:43:00.343Z,26.85
2023-01-20T01:45:29.967Z,27.05
2023-01-20T01:48:04.030Z,28.88
2023-01-20T01:50:37.670Z,24.20
2023-01-20T01:53:06.487Z,27.10
2023-01-20T01:55:38.304Z,27.02
2023-01-20T01:58:08.370Z,24.02
2023-01-20T02:00:36.362Z,29.73
2023-01-20T02:03:05.033Z,30.63
2023-01-20T02:05:33.423Z,28.85
2023-01-20T02:08:03.668Z,30.65
2023-01-20T02:10:31.596Z,28.70
2023-01-20T02:13:01.252Z,30.98
2023-01-20T02:15:34.847Z,32.17
2023-01-20T02:18:21.305Z,33.28
2023-01-20T02:21:22.787Z,30.05
2023-01-20T02:24:29.676Z,29.20
2023-01-20T02:27:10.082Z,26.58
2023-01-20T02:30:24.204Z,27.83
2023-01-20T02:32:58.793Z,30.83
2023-01-20T02:35:33.289Z,29.38
2023-01-20T02:38:11.353Z,27.92
2023-01-20T02:40:44.029Z,27.98
2023-01-20T02:43:18.859Z,27.73
2023-01-20T02:45:51.495Z,32.35
2023-01-20T02:48:25.609Z,30.60
2023-01-20T02:51:00.298Z,29.70
2023-01-20T02:53:33.812Z,32.38
2023-01-20T02:56:01.645Z,36.55
2023-01-20T02:58:38.017Z,31.70
2023-01-20T03:01:10.876Z,33.15
2023-01-20T03:03:45.427Z,33.08
2023-01-20T03:06:18.236Z,31.20
2023-01-20T03:08:49.291Z,33.45
2023-01-20T03:11:17.536Z,37.13
2023-01-20T03:13:50.024Z,32.90
2023-01-20T03:16:21.103Z,30.75
2023-01-20T03:18:51.514Z,32.53
2023-01-20T03:21:20.105Z,34.15
2023-01-20T03:23:50.683Z,34.35
2023-01-20T03:26:20.620Z,32.53
2023-01-20T03:28:49.662Z,33.88
2023-01-20T03:31:23.661Z,32.30
2023-01-20T03:33:55.560Z,35.42
2023-01-20T03:36:26.414Z,36.15
2023-01-20T03:38:55.733Z,34.70
2023-01-20T03:41:31.342Z,36.10
2023-01-20T03:44:10.836Z,30.05
2023-01-20T03:46:45.854Z,33.70
2023-01-20T03:49:23.412Z,34.20
2023-01-20T03:52:00.153Z,36.67
2023-01-20T03:54:34.897Z,31.67
2023-01-20T03:57:09.520Z,37.55
2023-01-20T03:59:41.041Z,41.63
2023-01-20T04:02:11.459Z,34.70
2023-01-20T04:04:44.294Z,32.58
2023-01-20T04:07:15.176Z,35.80
2023-01-20T04:09:48.621Z,32.92
2023-01-20T04:12:16.526Z,34.53
2023-01-20T04:14:44.455Z,36.53
2023-01-20T04:17:13.356Z,35.33
2023-01-20T04:19:42.519Z,41.25
2023-01-20T04:22:16.956Z,37.67
2023-01-20T04:24:50.464Z,34.72
2023-01-20T04:27:18.304Z,33.35
2023-01-20T04:29:46.365Z,34.35
2023-01-20T04:32:14.277Z,36.08
2023-01-20T04:34:43.491Z,37.50
2023-01-20T04:37:11.318Z,38.35
2023-01-20T04:39:39.210Z,36.78
2023-01-20T04:42:07.116Z,37.08
2023-01-20T04:44:35.280Z,38.08
2023-01-20T04:47:03.639Z,30.88
2023-01-20T04:49:31.490Z,33.50
2023-01-20T04:52:00.695Z,36.85
2023-01-20T04:54:28.566Z,37.83
2023-01-20T04:56:56.470Z,34.83
2023-01-20T04:59:24.422Z,34.92
2023-01-20T05:01:52.359Z,36.60
2023-01-20T05:04:20.433Z,37.10
2023-01-20T05:06:48.370Z,39.28
2023-01-20T05:09:18.181Z,30.60
2023-01-20T05:11:46.101Z,33.28
2023-01-20T05:14:14.345Z,33.15
2023-01-20T05:16:42.810Z,32.55
2023-01-20T05:19:12.039Z,35.25
2023-01-20T05:21:42.543Z,34.92
2023-01-20T05:24:10.684Z,30.98
2023-01-20T05:26:39.936Z,39.65
2023-01-20T05:29:09.131Z,34.70
2023-01-20T05:31:38.644Z,34.38
2023-01-20T05:34:06.529Z,32.90
2023-01-20T05:36:34.489Z,38.58
2023-01-20T05:39:02.521Z,40.17
2023-01-20T05:41:30.393Z,37.42
2023-01-20T05:43:59.622Z,37.85
2023-01-20T05:46:27.643Z,37.95
2023-01-20T05:48:55.554Z,35.90
2023-01-20T05:51:23.411Z,34.33
2023-01-20T05:53:51.303Z,37.38
2023-01-20T05:56:19.159Z,34.03
2023-01-20T05:58:47.086Z,35.70
2023-01-20T06:01:16.305Z,29.25
2023-01-20T06:03:44.466Z,34.92
2023-01-20T06:06:15.517Z,32.92
2023-01-20T06:08:43.665Z,33.83
2023-01-20T06:11:11.581Z,31.40
2023-01-20T06:13:40.008Z,33.15
2023-01-20T06:16:08.612Z,33.15
2023-01-20T06:18:37.913Z,30.30
2023-01-20T06:21:06.029Z,35.63
2023-01-20T06:23:34.013Z,31.63
2023-01-20T06:26:03.393Z,34.63
2023-01-20T06:28:32.898Z,31.33
2023-01-20T06:31:02.241Z,33.25
2023-01-20T06:33:30.402Z,32.15
2023-01-20T06:35:59.961Z,30.83
2023-01-20T06:38:30.300Z,31.20
2023-01-20T06:40:59.623Z,26.35
2023-01-20T06:43:29.549Z,28.15
2023-01-20T06:46:00.308Z,23.30
2023-01-20T06:48:28.299Z,28.40
2023-01-20T06:51:03.054Z,28.25
2023-01-20T06:53:31.305Z,30.40
2023-01-20T06:56:00.910Z,33.55
2023-01-20T06:58:30.448Z,33.35
2023-01-20T07:01:04.483Z,29.08
2023-01-20T07:03:32.498Z,29.77
2023-01-20T07:06:01.860Z,29.85
2023-01-20T07:08:31.143Z,29.40
2023-01-20T07:10:59.015Z,27.88
2023-01-20T07:13:32.618Z,26.92
2023-01-20T07:16:00.542Z,28.48
2023-01-20T07:18:28.396Z,26.88
2023-01-20T07:20:56.931Z,25.35
2023-01-20T07:23:25.427Z,27.05
2023-01-20T07:25:59.993Z,23.27
2023-01-20T07:28:28.458Z,28.92
2023-01-20T07:30:56.407Z,22.10
2023-01-20T07:33:24.282Z,21.00
2023-01-20T07:35:54.048Z,22.05
2023-01-20T07:38:22.097Z,24.20
2023-01-20T07:40:50.107Z,26.30
2023-01-20T07:43:19.334Z,24.85
2023-01-20T07:45:47.273Z,20.75
2023-01-20T07:48:15.237Z,22.17
2023-01-20T07:50:43.074Z,22.27
2023-01-20T07:53:10.960Z,20.60
2023-01-20T07:55:38.846Z,28.23
2023-01-20T07:58:06.855Z,30.25
2023-01-20T08:00:36.078Z,43.00
2023-01-20T08:03:03.935Z,43.13
2023-01-20T08:05:33.547Z,45.30
2023-01-20T08:08:01.448Z,32.47
2023-01-20T08:10:29.406Z,36.78
2023-01-20T08:12:57.297Z,35.22
2023-01-20T08:15:25.438Z,27.85
2023-01-20T08:17:56.143Z,28.02
2023-01-20T08:20:24.474Z,23.90
2023-01-20T08:22:52.457Z,24.17
2023-01-20T08:25:20.390Z,28.60
2023-01-20T08:27:50.006Z,29.58
2023-01-20T08:30:18.477Z,31.25
2023-01-20T08:32:46.344Z,30.77
2023-01-20T08:35:16.447Z,29.80
2023-01-20T08:37:44.562Z,28.85
2023-01-20T08:40:13.526Z,28.80
2023-01-20T08:42:41.436Z,35.95
2023-01-20T08:45:10.571Z,39.55
2023-01-20T08:47:44.162Z,31.75
2023-01-20T08:50:13.986Z,36.92
2023-01-20T08:52:43.647Z,31.88
2023-01-20T08:55:12.071Z,30.67
2023-01-20T08:57:40.073Z,28.70
2023-01-20T09:00:10.936Z,29.95
2023-01-20T09:02:39.501Z,27.90
2023-01-20T09:05:08.943Z,34.42
2023-01-20T09:07:37.271Z,34.20
2023-01-20T09:10:07.524Z,33.25
2023-01-20T09:12:35.390Z,25.40
2023-01-20T09:15:07.459Z,22.05
2023-01-20T09:17:35.977Z,20.92
2023-01-20T09:20:03.933Z,27.23
2023-01-20T09:22:31.817Z,27.85
2023-01-20T09:25:00.328Z,38.25
2023-01-20T09:27:29.545Z,32.78
2023-01-20T09:29:57.422Z,30.92
2023-01-20T09:32:25.369Z,29.70
2023-01-20T09:34:53.281Z,26.33
2023-01-20T09:37:38.679Z,30.35
2023-01-20T09:40:28.048Z,24.98
2023-01-20T09:43:25.813Z,27.08
2023-01-20T09:45:57.862Z,28.13
2023-01-20T09:48:55.439Z,28.73
2023-01-20T09:51:49.183Z,25.88
2023-01-20T09:54:24.341Z,25.80
2023-01-20T09:56:54.593Z,26.67
2023-01-20T09:59:28.196Z,25.92
2023-01-20T10:01:59.219Z,22.35
2023-01-20T10:04:32.875Z,26.63
2023-01-20T10:07:08.945Z,26.48
2023-01-20T10:09:43.652Z,30.08
2023-01-20T10:12:16.683Z,26.20
2023-01-20T10:14:50.776Z,29.45
2023-01-20T10:17:24.613Z,36.47
2023-01-20T10:19:58.877Z,41.03
2023-01-20T10:22:31.970Z,30.17
2023-01-20T10:25:06.309Z,32.15
2023-01-20T10:27:37.806Z,28.15
2023-01-20T10:30:10.723Z,33.30
2023-01-20T10:32:40.480Z,33.53
2023-01-20T10:35:15.510Z,33.08
2023-01-20T10:37:44.085Z,29.40
2023-01-20T10:40:20.425Z,30.17
2023-01-20T10:42:50.184Z,29.02
2023-01-20T10:45:28.295Z,28.25
2023-01-20T10:48:07.137Z,28.95
2023-01-20T10:50:49.583Z,29.08
2023-01-20T10:53:45.833Z,26.38
2023-01-20T10:56:35.414Z,22.52
2023-01-20T10:59:09.241Z,23.50
2023-01-20T11:01:38.643Z,22.60
2023-01-20T11:04:06.759Z,22.40
2023-01-20T11:06:34.797Z,26.15
2023-01-20T11:09:19.491Z,24.38
2023-01-20T11:11:48.720Z,23.15
2023-01-20T11:14:16.844Z,24.00
2023-01-20T11:16:48.126Z,24.55
2023-01-20T11:19:16.043Z,23.40
2023-01-20T11:21:43.979Z,21.83
2023-01-20T11:24:37.186Z,23.90
2023-01-20T11:27:06.716Z,25.10
2023-01-20T11:29:41.707Z,24.90
2023-01-20T11:35:27.380Z,25.63
2023-01-20T11:37:55.269Z,25.10
2023-01-20T11:40:25.445Z,27.98
2023-01-20T11:42:54.675Z,28.90
2023-01-20T11:45:32.484Z,25.20
2023-01-20T11:48:03.951Z,24.98
2023-01-20T11:50:36.437Z,23.77
2023-01-20T11:53:19.534Z,26.33
2023-01-20T11:55:51.511Z,24.95
2023-01-20T11:58:21.376Z,21.77
2023-01-20T12:00:52.254Z,23.13
2023-01-20T12:03:34.193Z,22.88
2023-01-20T12:06:14.102Z,24.02
2023-01-20T12:08:49.455Z,24.00
2023-01-20T12:11:22.563Z,21.08
2023-01-20T12:14:23.042Z,23.77
2023-01-20T12:17:15.774Z,24.90
2023-01-20T12:20:05.116Z,22.75
2023-01-20T12:22:45.264Z,21.75
2023-01-20T12:25:19.886Z,89.75
2023-01-20T12:27:55.225Z,54.03
2023-01-20T12:30:38.027Z,34.65
2023-01-20T12:33:09.946Z,32.33
2023-01-20T12:35:45.333Z,29.83
2023-01-20T12:38:19.937Z,27.48
2023-01-20T12:40:51.054Z,26.13
2023-01-20T12:43:33.167Z,27.50
2023-01-20T12:46:27.016Z,31.10
2023-01-20T12:49:18.294Z,34.03
2023-01-20T12:51:57.948Z,34.65
2023-01-20T12:54:49.522Z,36.42
2023-01-20T12:57:29.781Z,31.83
2023-01-20T13:00:16.259Z,32.25
2023-01-20T13:03:04.836Z,30.73
2023-01-20T13:06:01.367Z,37.28
2023-01-20T13:08:37.443Z,28.00
2023-01-20T13:11:17.673Z,32.08
2023-01-20T13:14:00.340Z,28.73
2023-01-20T13:16:36.656Z,28.15
2023-01-20T13:19:13.125Z,30.33
2023-01-20T13:21:42.538Z,28.00
2023-01-20T13:24:19.040Z,26.77
2023-01-20T13:26:50.117Z,27.00
2023-01-20T13:29:40.985Z,25.38
2023-01-20T13:32:27.782Z,24.25
2023-01-20T13:34:56.404Z,24.98
2023-01-20T13:37:37.338Z,24.52
2023-01-20T13:40:28.671Z,23.75
2023-01-20T13:42:57.906Z,24.25
2023-01-20T13:45:27.622Z,21.25
2023-01-20T13:48:02.099Z,23.13
2023-01-20T13:50:32.902Z,22.73
2023-01-20T13:53:15.076Z,23.63
2023-01-20T13:55:56.983Z,20.65
2023-01-20T13:58:27.021Z,19.08
2023-01-20T14:00:56.967Z,23.63
2023-01-20T14:03:29.678Z,22.75
2023-01-20T14:06:00.291Z,38.85
2023-01-20T14:08:30.106Z,76.32
2023-01-20T14:11:14.466Z,48.35
2023-01-20T14:13:52.723Z,38.45
2023-01-20T14:16:23.556Z,28.52
2023-01-20T14:18:53.831Z,25.67
2023-01-20T14:21:23.834Z,28.50
2023-01-20T14:23:52.271Z,21.50
2023-01-20T14:26:25.668Z,24.45
2023-01-20T14:28:56.446Z,25.65
2023-01-20T14:31:36.557Z,28.60
2023-01-20T14:34:27.107Z,23.90
2023-01-20T14:36:57.693Z,23.45
2023-01-20T14:39:28.127Z,30.45
2023-01-20T14:41:57.635Z,24.15
2023-01-20T14:44:28.741Z,22.67
2023-01-20T14:46:58.626Z,23.75
2023-01-20T14:49:32.834Z,21.48
2023-01-20T14:52:01.978Z,24.27
2023-01-20T14:54:31.969Z,24.42
2023-01-20T14:57:02.467Z,26.80
2023-01-20T14:59:31.785Z,28.95
2023-01-20T15:02:05.970Z,22.10
2023-01-20T15:04:37.651Z,22.20
2023-01-20T15:07:06.225Z,22.75
2023-01-20T15:09:35.812Z,26.60
2023-01-20T15:12:32.766Z,29.73
2023-01-20T15:15:19.982Z,66.88
2023-01-20T15:18:14.731Z,41.15
2023-01-20T15:20:44.849Z,28.08
2023-01-20T15:23:21.221Z,33.15
2023-01-20T15:25:50.254Z,29.45
2023-01-20T15:28:27.871Z,27.90
2023-01-20T15:30:59.601Z,30.05
2023-01-20T15:33:27.542Z,48.38
2023-01-20T15:35:57.703Z,55.08
2023-01-20T15:38:26.963Z,43.13
2023-01-20T15:40:54.891Z,34.28
2023-01-20T15:43:22.980Z,33.28
2023-01-20T15:45:50.846Z,31.20
2023-01-20T15:48:22.267Z,35.85
2023-01-20T15:50:50.181Z,32.33
2023-01-20T15:53:18.114Z,32.75
2023-01-20T15:55:48.746Z,27.95
2023-01-20T15:58:24.447Z,31.77
2023-01-20T16:00:52.867Z,50.67
2023-01-20T16:03:22.632Z,59.90
2023-01-20T16:05:51.467Z,57.15
2023-01-20T16:08:22.312Z,71.97
2023-01-20T16:10:50.521Z,69.10
2023-01-20T16:13:18.457Z,55.47
2023-01-20T16:15:46.333Z,58.22
2023-01-20T16:18:16.129Z,49.22
2023-01-20T16:20:46.673Z,38.22
2023-01-20T16:23:15.027Z,34.15
2023-01-20T16:25:43.959Z,42.60
2023-01-20T16:28:15.262Z,46.28
2023-01-20T16:30:43.693Z,44.33
2023-01-20T16:33:20.156Z,40.25
2023-01-20T16:35:51.916Z,39.22
2023-01-20T16:38:22.154Z,40.42
2023-01-20T16:40:52.630Z,43.10
2023-01-20T16:43:21.427Z,44.20
2023-01-20T16:45:54.266Z,82.20
2023-01-20T16:48:23.312Z,50.88
2023-01-20T16:50:53.675Z,42.95
2023-01-20T16:53:21.635Z,38.55
2023-01-20T16:55:50.447Z,38.70
2023-01-20T16:58:18.298Z,48.92
2023-01-20T17:00:46.290Z,53.95
2023-01-20T17:03:14.190Z,66.00
2023-01-20T17:05:42.102Z,42.55
2023-01-20T17:08:11.393Z,37.78
2023-01-20T17:10:39.269Z,43.28
2023-01-20T17:13:07.164Z,41.08
2023-01-20T17:15:35.051Z,36.13
2023-01-20T17:18:03.027Z,40.00
2023-01-20T17:20:32.344Z,43.28
2023-01-20T17:23:00.306Z,43.92
2023-01-20T17:25:29.937Z,43.50
2023-01-20T17:27:57.871Z,45.97
2023-01-20T17:30:26.536Z,39.58
2023-01-20T17:32:54.752Z,37.30
2023-01-20T17:35:22.714Z,40.55
2023-01-20T17:37:50.593Z,38.97
2023-01-20T17:40:19.172Z,49.35
2023-01-20T17:42:49.012Z,36.10
2023-01-20T17:45:16.986Z,35.45
2023-01-20T17:47:44.856Z,39.05
2023-01-20T17:50:12.935Z,56.30
2023-01-20T17:52:40.902Z,52.10
2023-01-20T17:55:09.540Z,59.95
2023-01-20T17:57:37.479Z,59.75
2023-01-20T18:00:08.058Z,62.63
2023-01-20T18:02:35.983Z,56.78
2023-01-20T18:05:04.113Z,44.53
2023-01-20T18:07:31.969Z,42.97
2023-01-20T18:09:59.802Z,49.20
2023-01-20T18:12:27.679Z,46.83
2023-01-20T18:14:55.530Z,42.40
2023-01-20T18:17:24.851Z,37.58
2023-01-20T18:19:52.770Z,37.28
2023-01-20T18:22:20.651Z,40.53
2023-01-20T18:24:48.503Z,42.88
2023-01-20T18:27:18.712Z,33.60
2023-01-20T18:29:50.223Z,36.90
2023-01-20T18:32:18.219Z,39.65
2023-01-20T18:34:47.490Z,39.08
2023-01-20T18:37:15.520Z,47.45
2023-01-20T18:39:43.919Z,45.33
2023-01-20T18:42:12.134Z,48.40
2023-01-20T18:44:40.261Z,52.50
2023-01-20T18:47:08.114Z,47.33
2023-01-20T18:49:36.154Z,65.95
2023-01-20T18:52:06.085Z,66.65
2023-01-20T18:54:37.104Z,50.15
2023-01-20T18:57:07.391Z,53.83
2023-01-20T18:59:36.790Z,54.70
2023-01-20T19:02:04.826Z,46.25
2023-01-20T19:04:33.568Z,45.83
2023-01-20T19:07:01.425Z,45.53
2023-01-20T19:09:30.996Z,52.08
2023-01-20T19:11:58.970Z,56.10
2023-01-20T19:14:27.756Z,46.13
2023-01-20T19:16:55.715Z,40.67
2023-01-20T19:19:23.864Z,40.25
2023-01-20T19:21:52.656Z,38.85
2023-01-20T19:24:22.207Z,34.38
2023-01-20T19:26:51.491Z,39.58
2023-01-20T19:29:19.730Z,38.78
2023-01-20T19:31:49.063Z,38.47
2023-01-20T19:34:17.236Z,36.20
2023-01-20T19:36:45.305Z,41.13
2023-01-20T19:39:13.370Z,46.35
2023-01-20T19:41:41.595Z,52.10
2023-01-20T19:44:13.530Z,53.97
2023-01-20T19:46:41.782Z,49.83
2023-01-20T19:49:10.796Z,48.42
2023-01-20T19:51:39.255Z,48.65
2023-01-20T19:54:07.371Z,53.47
2023-01-20T19:56:36.894Z,51.13
2023-01-20T19:59:06.829Z,47.05
2023-01-20T20:01:37.713Z,42.47
2023-01-20T20:04:07.409Z,48.65
2023-01-20T20:06:37.898Z,47.42
2023-01-20T20:09:08.017Z,41.53
2023-01-20T20:11:36.401Z,40.10
2023-01-20T20:14:07.217Z,37.60
2023-01-20T20:16:38.173Z,44.05
2023-01-20T20:19:06.796Z,35.78
2023-01-20T20:21:35.239Z,40.28
2023-01-20T20:24:05.180Z,55.88
2023-01-20T20:26:35.343Z,40.08
2023-01-20T20:29:05.239Z,53.63
2023-01-20T20:31:34.266Z,37.85
2023-01-20T20:34:05.691Z,48.70
2023-01-20T20:36:33.649Z,39.17
2023-01-20T20:39:03.112Z,39.45
2023-01-20T20:41:33.241Z,42.92
2023-01-20T20:44:02.459Z,43.38
2023-01-20T20:46:30.883Z,43.45
2023-01-20T20:49:00.744Z,46.80
2023-01-20T20:51:32.235Z,48.00
2023-01-20T20:54:01.619Z,48.10
2023-01-20T20:56:31.606Z,48.30
2023-01-20T20:59:02.763Z,55.33
2023-01-20T21:01:33.387Z,60.00
2023-01-20T21:04:02.058Z,44.50
2023-01-20T21:06:32.496Z,57.35
2023-01-20T21:09:01.225Z,67.75
2023-01-20T21:11:29.655Z,81.45
2023-01-20T21:13:57.771Z,108.90
2023-01-20T21:16:27.484Z,78.40
2023-01-20T21:18:57.081Z,84.90
2023-01-20T21:21:25.775Z,66.15
2023-01-20T21:23:56.409Z,57.08
2023-01-20T21:26:27.736Z,60.45
2023-01-20T21:28:57.677Z,73.75
2023-01-20T21:31:26.675Z,55.08
2023-01-20T21:33:56.928Z,54.30
2023-01-20T21:36:25.504Z,47.00
2023-01-20T21:38:55.071Z,49.83
2023-01-20T21:41:23.031Z,54.03
2023-01-20T21:44:08.435Z,48.65
2023-01-20T21:46:39.293Z,49.65
2023-01-20T21:49:25.528Z,54.38
2023-01-20T21:52:11.315Z,52.40
2023-01-20T21:54:41.224Z,60.80
2023-01-20T21:57:10.223Z,66.05
2023-01-20T21:59:38.269Z,63.75
2023-01-20T22:02:06.265Z,66.60
2023-01-20T22:04:34.245Z,57.78
2023-01-20T22:07:02.155Z,64.40
2023-01-20T22:09:30.274Z,62.13
2023-01-20T22:11:59.489Z,59.03
2023-01-20T22:14:27.459Z,58.25
2023-01-20T22:16:55.350Z,59.92
2023-01-20T22:19:23.234Z,63.45
2023-01-20T22:21:51.436Z,70.35
2023-01-20T22:24:19.347Z,82.25
2023-01-20T22:26:48.176Z,76.18
2023-01-20T22:29:18.635Z,78.28
2023-01-20T22:31:46.872Z,78.97
2023-01-20T22:34:14.824Z,76.22
2023-01-20T22:36:42.825Z,67.05
2023-01-20T22:39:12.701Z,90.65
2023-01-20T22:41:40.868Z,75.15
2023-01-20T22:44:09.492Z,57.67
2023-01-20T22:46:38.843Z,74.65
2023-01-20T22:49:06.719Z,78.18
2023-01-20T22:51:34.615Z,76.95
2023-01-20T22:54:02.988Z,72.72
2023-01-20T22:56:32.255Z,76.50
2023-01-20T22:59:01.027Z,82.57
2023-01-20T23:01:31.268Z,79.10
2023-01-20T23:04:02.083Z,74.50
2023-01-20T23:06:33.226Z,72.47
2023-01-20T23:09:01.603Z,63.40
2023-01-20T23:11:29.902Z,73.18
2023-01-20T23:13:58.222Z,83.68
2023-01-20T23:16:26.206Z,78.03
2023-01-20T23:18:54.169Z,68.22
2023-01-20T23:21:24.371Z,72.82
2023-01-20T23:23:54.556Z,72.50
2023-01-20T23:26:24.487Z,74.50
2023-01-20T23:28:53.718Z,69.18
2023-01-20T23:31:22.314Z,81.20
2023-01-20T23:33:51.028Z,81.85
2023-01-20T23:36:20.899Z,77.65
2023-01-20T23:38:50.223Z,79.55
2023-01-20T23:41:18.137Z,91.95
2023-01-20T23:43:46.200Z,90.13
2023-01-20T23:46:14.256Z,91.65
2023-01-20T23:48:42.190Z,81.43
2023-01-20T23:51:10.929Z,86.68
2023-01-20T23:53:40.320Z,76.43
2023-01-20T23:56:14.384Z,65.75
2023-01-20T23:58:42.363Z,69.63
